Time;durP1;ratioP1;P1;durP2;ratioP2;P2;SDS_P1;SDS_P2;PMS_P1;PMS_P2;Temp;Humidity;BMP_temperature;BMP_pressure;BME280_temperature;BME280_humidity;BME280_pressure;Samples;Min_cycle;Max_cycle;Signal;HPM_P1;HPM_P2
2023/07/03 00:00:48;;;;;;;16.25;10.43;;;;;;;19.78;100.00;99512.59;5106662;28;20038;-19
2023/07/03 00:03:13;;;;;;;14.93;10.43;;;;;;;19.91;100.00;99505.63;5105672;28;20047;-20
2023/07/03 00:05:46;;;;;;;16.30;10.05;;;;;;;20.22;100.00;99516.75;5105790;28;20035;-19
2023/07/03 00:08:19;;;;;;;18.60;10.68;;;;;;;20.03;100.00;99508.69;5104745;28;20035;-20
2023/07/03 00:10:44;;;;;;;20.13;10.52;;;;;;;19.93;100.00;99506.16;5105353;28;20055;-19
2023/07/03 00:13:12;;;;;;;14.85;10.70;;;;;;;20.13;100.00;99510.44;5105720;28;20143;-20
2023/07/03 00:15:37;;;;;;;18.15;10.70;;;;;;;20.10;100.00;99510.22;5105908;28;20027;-20
2023/07/03 00:18:03;;;;;;;14.40;10.18;;;;;;;20.13;100.00;99515.06;5105594;28;20032;-19
2023/07/03 00:20:31;;;;;;;16.15;10.20;;;;;;;20.18;100.00;99509.53;5105439;28;20057;-25
2023/07/03 00:22:56;;;;;;;;;;;;;;;20.07;100.00;99514.31;5106497;28;20027;-20
2023/07/03 00:25:22;;;;;;;17.87;10.80;;;;;;;19.98;100.00;99511.50;5105532;28;20337;-19
2023/07/03 00:27:48;;;;;;;16.33;10.63;;;;;;;19.95;100.00;99514.78;5105663;28;20410;-19
2023/07/03 00:30:15;;;;;;;20.55;12.25;;;;;;;19.77;100.00;99508.28;5105395;28;20055;-19
2023/07/03 00:32:41;;;;;;;23.08;13.40;;;;;;;19.82;100.00;99519.03;5105262;28;20028;-20
2023/07/03 00:35:06;;;;;;;21.83;11.98;;;;;;;19.87;100.00;99512.72;5104993;28;20053;-19
2023/07/03 00:37:35;;;;;;;21.63;13.43;;;;;;;19.76;100.00;99503.19;5105351;28;20030;-20
2023/07/03 00:40:01;;;;;;;28.38;14.38;;;;;;;19.74;100.00;99516.19;5105922;28;20027;-20
2023/07/03 00:42:28;;;;;;;21.42;13.57;;;;;;;19.77;100.00;99515.59;5105230;28;20035;-20
2023/07/03 00:44:54;;;;;;;24.67;14.30;;;;;;;19.69;100.00;99517.03;5105586;28;20141;-19
2023/07/03 00:47:21;;;;;;;26.38;14.07;;;;;;;19.68;100.00;99513.53;5105288;28;20046;-21
2023/07/03 00:49:48;;;;;;;25.43;14.40;;;;;;;19.59;100.00;99526.06;5105180;28;20031;-20
2023/07/03 00:52:16;;;;;;;22.33;14.68;;;;;;;19.50;100.00;99511.63;5105306;28;20023;-19
2023/07/03 00:54:42;;;;;;;23.35;13.65;;;;;;;19.52;100.00;99509.41;5105283;28;20089;-19
2023/07/03 00:57:12;;;;;;;22.63;13.05;;;;;;;19.51;100.00;99512.41;5105618;28;20039;-20
2023/07/03 00:59:38;;;;;;;19.42;11.35;;;;;;;19.57;100.00;99505.84;5104821;28;20039;-21
2023/07/03 01:02:35;;;;;;;19.00;11.60;;;;;;;19.49;100.00;99504.59;5105403;28;20172;-20
2023/07/03 01:05:13;;;;;;;23.50;11.63;;;;;;;19.57;100.00;99506.63;5086818;28;20131;-20
2023/07/03 01:07:39;;;;;;;20.25;11.27;;;;;;;19.54;100.00;99507.22;5104914;28;20045;-19
2023/07/03 01:10:18;;;;;;;15.77;10.80;;;;;;;19.59;100.00;99509.84;5105068;28;20062;-21
2023/07/03 01:12:47;;;;;;;22.63;12.57;;;;;;;19.64;100.00;99503.59;5105067;28;20024;-19
2023/07/03 01:15:17;;;;;;;20.52;11.70;;;;;;;19.50;100.00;99506.22;5105025;28;20033;-18
2023/07/03 01:17:47;;;;;;;18.05;11.63;;;;;;;19.50;100.00;99508.13;5104776;28;20062;-21
2023/07/03 01:20:16;;;;;;;15.32;10.82;;;;;;;19.16;100.00;99515.28;5107733;28;20051;-20
2023/07/03 01:22:54;;;;;;;26.70;12.23;;;;;;;19.06;100.00;99520.81;5109696;28;20023;-19
2023/07/03 01:25:24;;;;;;;25.95;12.60;;;;;;;19.01;100.00;99518.19;5109457;28;20037;-21
2023/07/03 01:27:51;;;;;;;25.20;13.15;;;;;;;19.17;100.00;99529.63;5108789;28;20867;-21
2023/07/03 01:30:19;;;;;;;23.40;13.40;;;;;;;19.14;100.00;99525.59;5108898;28;20541;-19
2023/07/03 01:32:46;;;;;;;;;;;;;;;19.00;100.00;99519.25;5109307;28;20028;-19
2023/07/03 01:35:12;;;;;;;18.77;12.50;;;;;;;19.35;100.00;99520.75;5108916;28;20068;-19
2023/07/03 01:37:47;;;;;;;21.70;13.38;;;;;;;19.33;100.00;99500.47;5108822;28;20112;-20
2023/07/03 01:40:15;;;;;;;20.73;11.90;;;;;;;19.23;100.00;99518.44;5108614;28;20027;-20
2023/07/03 01:42:44;;;;;;;19.13;11.57;;;;;;;19.15;100.00;99527.22;5108820;28;20055;-19
2023/07/03 01:45:17;;;;;;;21.23;12.63;;;;;;;19.39;100.00;99520.94;5108441;28;20498;-20
2023/07/03 01:47:42;;;;;;;22.15;12.90;;;;;;;19.71;100.00;99522.97;5108998;28;20038;-21
2023/07/03 01:50:14;;;;;;;19.85;12.40;;;;;;;19.39;100.00;99532.59;5108332;28;20027;-22
2023/07/03 01:53:02;;;;;;;19.60;12.40;;;;;;;19.51;100.00;99526.72;5108685;28;20031;-20
2023/07/03 01:55:34;;;;;;;18.15;11.98;;;;;;;19.71;100.00;99533.78;5090221;28;20039;-19
2023/07/03 01:58:05;;;;;;;16.08;10.10;;;;;;;19.48;100.00;99519.22;5108730;28;20635;-24
2023/07/03 02:00:50;;;;;;;21.83;11.77;;;;;;;19.59;100.00;99530.69;5108203;28;20055;-20
2023/07/03 02:03:24;;;;;;;17.75;10.95;;;;;;;19.68;100.00;99528.94;5108379;28;20497;-19
2023/07/03 02:05:52;;;;;;;17.63;10.98;;;;;;;19.75;100.00;99532.13;5108138;28;20055;-19
2023/07/03 02:08:20;;;;;;;21.08;11.32;;;;;;;19.80;100.00;99529.34;5108376;28;20106;-20
2023/07/03 02:10:51;;;;;;;19.10;10.57;;;;;;;19.62;100.00;99541.72;5107942;28;20043;-20
2023/07/03 02:13:19;;;;;;;18.45;10.88;;;;;;;19.82;100.00;99539.88;5108117;28;20069;-19
2023/07/03 02:15:46;;;;;;;18.10;10.02;;;;;;;19.78;100.00;99545.06;5108283;28;20077;-19
2023/07/03 02:18:13;;;;;;;16.38;10.68;;;;;;;19.80;100.00;99547.50;5108578;28;20031;-20
2023/07/03 02:20:38;;;;;;;17.40;10.55;;;;;;;19.77;100.00;99553.47;5107862;28;20032;-19
2023/07/03 02:23:04;;;;;;;17.55;10.10;;;;;;;19.47;100.00;99567.09;5107922;28;21231;-20
2023/07/03 02:25:31;;;;;;;19.00;10.25;;;;;;;19.42;100.00;99563.66;5107572;28;20035;-23
2023/07/03 02:27:57;;;;;;;19.02;10.65;;;;;;;19.36;100.00;99564.81;5107666;28;20073;-19
2023/07/03 02:30:25;;;;;;;18.58;10.63;;;;;;;19.46;100.00;99564.66;5107375;28;20464;-19
2023/07/03 02:32:53;;;;;;;;;;;;;;;19.56;100.00;99564.53;5108025;28;20819;-20
2023/07/03 02:35:19;;;;;;;17.55;10.48;;;;;;;19.60;100.00;99570.97;5107408;28;19912;-19
2023/07/03 02:37:47;;;;;;;20.10;10.45;;;;;;;19.66;100.00;99559.00;5107664;28;20069;-21
2023/07/03 02:40:13;;;;;;;16.88;11.27;;;;;;;19.78;100.00;99572.13;5089448;28;20036;-21
2023/07/03 02:42:39;;;;;;;15.35;10.95;;;;;;;19.68;100.00;99562.22;5107911;28;20036;-19
2023/07/03 02:45:06;;;;;;;17.30;10.25;;;;;;;19.83;100.00;99563.13;5107311;28;20511;-20
2023/07/03 02:47:34;;;;;;;21.65;12.30;;;;;;;19.84;100.00;99564.75;5107219;28;20454;-20
2023/07/03 02:49:59;;;;;;;;;;;;;;;19.72;100.00;99577.91;5107857;28;20059;-23
2023/07/03 02:52:27;;;;;;;20.73;10.97;;;;;;;19.68;100.00;99566.81;5107753;28;20741;-20
2023/07/03 02:54:52;;;;;;;37.35;16.45;;;;;;;19.72;100.00;99572.50;5107013;28;20300;-20
2023/07/03 02:57:23;;;;;;;32.13;17.90;;;;;;;19.68;100.00;99575.75;5107373;28;20543;-19
2023/07/03 02:59:49;;;;;;;24.33;14.07;;;;;;;19.76;100.00;99584.34;5107549;28;20035;-19
2023/07/03 03:02:18;;;;;;;26.77;13.48;;;;;;;19.74;100.00;99571.09;5106088;28;20039;-20
2023/07/03 03:04:45;;;;;;;21.17;12.63;;;;;;;19.73;100.00;99569.47;5107538;28;20024;-20
2023/07/03 03:07:11;;;;;;;19.45;13.05;;;;;;;19.81;100.00;99570.72;5106687;28;20035;-19
2023/07/03 03:09:36;;;;;;;24.58;14.55;;;;;;;19.64;100.00;99580.13;5088631;28;20032;-20
2023/07/03 03:12:02;;;;;;;22.08;12.95;;;;;;;19.77;100.00;99570.50;5106917;28;20498;-21
2023/07/03 03:14:30;;;;;;;24.90;13.60;;;;;;;19.73;100.00;99574.88;5106844;28;20081;-20
2023/07/03 03:16:55;;;;;;;;;;;;;;;19.57;100.00;99582.38;5107583;28;20027;-20
2023/07/03 03:19:20;;;;;;;19.07;11.63;;;;;;;19.63;100.00;99581.19;5106667;28;19912;-19
2023/07/03 03:21:50;;;;;;;25.95;12.80;;;;;;;19.65;100.00;99573.59;5107023;28;20303;-20
2023/07/03 03:24:20;;;;;;;19.00;12.30;;;;;;;19.79;100.00;99583.75;5107202;28;20486;-19
2023/07/03 03:26:46;;;;;;;19.85;12.38;;;;;;;19.92;100.00;99579.50;5106761;28;20046;-20
2023/07/03 03:29:14;;;;;;;22.85;12.13;;;;;;;19.81;100.00;99587.75;5106592;28;20122;-20
2023/07/03 03:31:39;;;;;;;;;;;;;;;19.83;100.00;99579.34;5106518;28;20043;-20
2023/07/03 03:34:07;;;;;;;21.07;11.40;;;;;;;20.04;100.00;99586.09;5106246;28;19950;-18
2023/07/03 03:36:33;;;;;;;25.15;12.52;;;;;;;19.85;100.00;99582.56;5106354;28;20293;-19
2023/07/03 03:39:03;;;;;;;21.08;12.65;;;;;;;19.85;100.00;99580.66;5106992;28;20019;-21
2023/07/03 03:41:28;;;;;;;18.40;12.10;;;;;;;19.81;100.00;99603.19;5106823;28;20445;-19
2023/07/03 03:43:54;;;;;;;19.50;12.68;;;;;;;19.82;100.00;99588.59;5106789;28;20035;-20
2023/07/03 03:46:35;;;;;;;24.60;13.55;;;;;;;20.35;100.00;99596.47;5106727;28;20150;-19
2023/07/03 03:49:10;;;;;;;23.45;13.77;;;;;;;20.16;100.00;99588.34;5106720;28;20030;-24
2023/07/03 03:51:38;;;;;;;21.42;12.15;;;;;;;20.38;100.00;99601.25;5106845;28;20038;-20
2023/07/03 03:54:04;;;;;;;;;;;;;;;20.51;100.00;99605.13;5107194;28;20081;-20
2023/07/03 03:56:37;;;;;;;20.73;11.43;;;;;;;20.47;100.00;99604.09;5106543;28;19916;-19
2023/07/03 03:59:09;;;;;;;19.60;11.98;;;;;;;20.36;100.00;99608.88;5106720;28;20070;-20
2023/07/03 04:01:35;;;;;;;23.30;11.93;;;;;;;20.23;100.00;99615.84;5106185;28;20034;-19
2023/07/03 04:04:15;;;;;;;18.05;11.57;;;;;;;20.23;100.00;99615.84;5106644;28;20031;-25
2023/07/03 04:06:46;;;;;;;18.65;12.40;;;;;;;20.45;100.00;99623.38;5106481;28;20060;-23
2023/07/03 04:09:13;;;;;;;17.95;11.75;;;;;;;20.34;100.00;99621.13;5105700;28;20039;-19
2023/07/03 04:11:41;;;;;;;15.23;11.48;;;;;;;20.45;100.00;99626.09;5104947;28;20061;-23
2023/07/03 04:14:09;;;;;;;19.30;11.52;;;;;;;20.60;100.00;99618.84;5105489;28;20027;-19
2023/07/03 04:16:34;;;;;;;19.33;10.65;;;;;;;20.72;100.00;99626.47;5104590;28;20062;-19
2023/07/03 04:19:03;;;;;;;18.67;11.20;;;;;;;20.79;100.00;99622.28;5104903;28;20426;-23
2023/07/03 04:21:28;;;;;;;18.85;11.90;;;;;;;20.86;100.00;99630.84;5105614;28;20049;-19
2023/07/03 04:23:54;;;;;;;18.17;11.40;;;;;;;20.72;100.00;99627.31;5104941;28;20023;-19
2023/07/03 04:26:22;;;;;;;18.58;11.63;;;;;;;21.01;100.00;99639.81;5104529;28;20056;-21
2023/07/03 04:28:48;;;;;;;18.85;11.38;;;;;;;21.09;100.00;99636.41;5104932;28;20127;-20
2023/07/03 04:31:14;;;;;;;16.88;11.40;;;;;;;21.02;100.00;99650.38;5105247;28;20032;-19
2023/07/03 04:33:39;;;;;;;19.95;11.40;;;;;;;21.36;100.00;99648.38;5104835;28;20032;-20
2023/07/03 04:36:05;;;;;;;19.85;12.63;;;;;;;21.38;100.00;99646.16;5104694;28;20495;-20
2023/07/03 04:38:31;;;;;;;20.73;12.00;;;;;;;21.16;100.00;99647.66;5104697;28;20023;-25
2023/07/03 04:40:56;;;;;;;19.27;12.82;;;;;;;21.32;100.00;99650.09;5104594;28;20035;-20
2023/07/03 04:43:22;;;;;;;20.42;12.77;;;;;;;21.27;100.00;99643.66;5104825;28;20464;-19
2023/07/03 04:45:51;;;;;;;23.95;13.70;;;;;;;21.43;100.00;99646.09;5104666;28;20031;-20
2023/07/03 04:48:18;;;;;;;26.10;14.88;;;;;;;21.25;100.00;99651.28;5104629;28;20088;-20
2023/07/03 04:50:48;;;;;;;21.90;14.00;;;;;;;21.44;100.00;99647.72;5102051;28;20016;-21
2023/07/03 04:53:14;;;;;;;22.23;13.57;;;;;;;21.49;100.00;99655.75;5104444;28;20030;-19
2023/07/03 04:55:40;;;;;;;18.58;12.88;;;;;;;21.62;100.00;99654.94;5104143;28;20027;-22
2023/07/03 04:58:05;;;;;;;20.38;13.60;;;;;;;21.70;100.00;99649.91;5104743;28;20055;-20
2023/07/03 05:00:38;;;;;;;20.63;12.82;;;;;;;21.81;100.00;99656.72;5104339;28;20149;-22
2023/07/03 05:03:04;;;;;;;20.75;12.95;;;;;;;21.83;100.00;99659.94;5104535;28;20034;-20
2023/07/03 05:05:30;;;;;;;22.23;13.25;;;;;;;21.96;100.00;99663.75;5104709;28;20019;-22
2023/07/03 05:07:55;;;;;;;18.75;12.98;;;;;;;22.04;100.00;99668.44;5104798;28;20024;-20
2023/07/03 05:10:22;;;;;;;19.40;13.73;;;;;;;22.21;100.00;99659.66;5104174;28;20251;-20
2023/07/03 05:12:50;;;;;;;22.55;14.13;;;;;;;22.36;100.00;99656.63;5104649;28;20015;-20
2023/07/03 05:15:22;;;;;;;25.45;15.13;;;;;;;22.19;100.00;99654.53;5104290;28;20023;-19
2023/07/03 05:17:54;;;;;;;22.77;13.93;;;;;;;22.33;100.00;99657.25;5102013;28;20035;-20
2023/07/03 05:20:23;;;;;;;19.88;14.13;;;;;;;22.26;100.00;99663.09;5104035;28;20030;-20
2023/07/03 05:22:51;;;;;;;18.95;14.38;;;;;;;22.34;100.00;99669.72;5104295;28;20067;-19
2023/07/03 05:25:25;;;;;;;22.45;15.10;;;;;;;22.43;100.00;99661.63;5104180;28;20043;-20
2023/07/03 05:28:11;;;;;;;23.38;15.30;;;;;;;22.48;100.00;99669.66;5102101;28;20048;-19
2023/07/03 05:30:39;;;;;;;20.77;14.80;;;;;;;22.41;100.00;99661.97;5102822;28;20020;-19
2023/07/03 05:33:12;;;;;;;20.95;14.88;;;;;;;22.60;100.00;99669.13;5104219;28;20026;-20
2023/07/03 05:35:38;;;;;;;19.95;14.60;;;;;;;22.83;100.00;99664.47;5104265;28;20039;-20
2023/07/03 05:38:11;;;;;;;23.08;14.93;;;;;;;22.78;100.00;99670.84;5105254;28;20027;-20
2023/07/03 05:40:36;;;;;;;20.17;15.00;;;;;;;22.79;100.00;99679.81;5105185;28;20032;-20
2023/07/03 05:43:13;;;;;;;23.55;15.63;;;;;;;22.84;100.00;99672.34;5105291;28;20664;-20
2023/07/03 05:45:40;;;;;;;31.15;20.67;;;;;;;22.87;100.00;99655.38;5105221;28;20030;-20
2023/07/03 05:48:08;;;;;;;23.48;18.08;;;;;;;23.00;100.00;99669.22;5105439;28;20145;-20
2023/07/03 05:50:36;;;;;;;35.72;24.80;;;;;;;23.30;100.00;99672.28;5105273;28;20038;-20
2023/07/03 05:53:03;;;;;;;19.98;16.10;;;;;;;23.12;100.00;99666.75;5097461;28;20433;-23
2023/07/03 05:55:33;;;;;;;22.63;17.40;;;;;;;23.23;100.00;99673.53;5091947;28;20020;-20
2023/07/03 05:57:59;;;;;;;20.45;16.90;;;;;;;23.18;100.00;99676.38;5104058;28;20062;-20
2023/07/03 06:00:30;;;;;;;23.20;16.60;;;;;;;23.22;100.00;99677.34;5104383;28;20032;-20
2023/07/03 06:03:02;;;;;;;22.90;16.08;;;;;;;23.32;100.00;99675.50;5104328;28;20035;-20
2023/07/03 06:05:27;;;;;;;25.55;18.27;;;;;;;23.40;100.00;99675.50;5103555;28;20055;-19
2023/07/03 06:07:55;;;;;;;22.00;17.98;;;;;;;23.52;100.00;99677.66;5107148;28;20126;-20
2023/07/03 06:10:23;;;;;;;21.27;17.00;;;;;;;23.37;100.00;99678.06;5108169;28;20051;-19
2023/07/03 06:12:48;;;;;;;23.35;17.55;;;;;;;23.54;100.00;99683.56;5105085;28;20732;-21
2023/07/03 06:28:07;;;;;;;25.88;18.88;;;;;;;24.57;97.22;99691.47;5088627;28;20118;-17
2023/07/03 06:30:32;;;;;;;21.27;17.98;;;;;;;24.54;95.48;99684.75;5080913;28;20113;-19
2023/07/03 06:33:00;;;;;;;23.67;17.65;;;;;;;24.53;95.53;99701.44;5080860;28;20032;-16
2023/07/03 06:35:27;;;;;;;;;;;;;;;24.80;92.44;99694.81;5081884;28;20579;-16
2023/07/03 06:37:55;;;;;;;;;;;;;;;24.65;92.72;99702.38;5081265;28;19926;-17
2023/07/03 06:40:21;;;;;;;22.95;18.10;;;;;;;24.47;91.70;99674.28;5081739;28;19915;-17
2023/07/03 06:42:46;;;;;;;24.52;17.65;;;;;;;24.55;95.34;99688.28;5081294;28;20476;-17
2023/07/03 06:45:12;;;;;;;22.08;18.02;;;;;;;24.58;94.87;99699.34;5081619;28;20832;-19
2023/07/03 06:47:39;;;;;;;22.67;18.23;;;;;;;24.54;97.22;99692.09;5068861;28;20412;-16
2023/07/03 06:50:08;;;;;;;24.13;18.00;;;;;;;24.66;95.51;99700.44;5061448;28;20037;-16
2023/07/03 06:52:35;;;;;;;24.58;17.77;;;;;;;24.94;93.00;99700.09;5073803;28;20036;-16
2023/07/03 06:55:00;;;;;;;24.60;18.48;;;;;;;24.98;97.21;99699.13;5081460;28;20035;-16
2023/07/03 06:57:28;;;;;;;26.05;18.40;;;;;;;24.92;91.30;99699.63;5081852;28;20028;-16
2023/07/03 06:59:53;;;;;;;24.95;18.88;;;;;;;24.98;93.57;99696.38;5082072;28;20166;-15
2023/07/03 07:02:21;;;;;;;24.77;18.15;;;;;;;25.26;93.58;99702.28;5079124;28;20174;-17
2023/07/03 07:04:54;;;;;;;22.92;17.60;;;;;;;25.48;90.53;99702.38;5079062;28;20707;-17
2023/07/03 07:07:19;;;;;;;24.05;18.02;;;;;;;25.56;87.82;99699.63;5080618;28;20031;-17
2023/07/03 07:09:48;;;;;;;23.17;19.20;;;;;;;25.54;89.53;99699.16;5079952;28;20020;-15
2023/07/03 07:12:16;;;;;;;24.00;17.83;;;;;;;25.56;83.68;99699.63;5080736;28;20051;-21
2023/07/03 07:14:45;;;;;;;22.42;18.52;;;;;;;25.64;82.87;99706.97;5080829;28;20107;-17
2023/07/03 07:17:15;;;;;;;22.10;17.17;;;;;;;25.61;82.92;99704.09;5080791;28;20039;-17
2023/07/03 07:19:41;;;;;;;22.50;17.55;;;;;;;25.52;85.71;99697.84;5080078;28;20036;-16
2023/07/03 07:22:11;;;;;;;21.52;17.33;;;;;;;25.62;87.78;99692.84;5080714;28;20024;-20
2023/07/03 07:24:41;;;;;;;21.13;17.55;;;;;;;25.76;86.35;99691.78;5080445;28;20029;-16
2023/07/03 07:27:15;;;;;;;19.83;16.00;;;;;;;26.07;82.42;99707.84;5090095;28;20049;-16
2023/07/03 07:29:52;;;;;;;21.88;16.33;;;;;;;26.16;80.03;99707.81;5086441;28;20058;-16
2023/07/03 07:32:27;;;;;;;;;;;;;;;;;;;;;
2023/07/03 07:35:05;;;;;;;21.88;16.88;;;;;;;26.14;80.19;99710.88;5080740;28;20035;-17
2023/07/03 07:37:30;;;;;;;;;;;;;;;25.98;80.82;99705.19;5086196;28;20526;-16
2023/07/03 07:39:56;;;;;;;20.60;15.53;;;;;;;26.15;81.89;99704.25;5085673;28;19912;-17
2023/07/03 07:42:21;;;;;;;21.27;16.95;;;;;;;26.21;80.00;99710.34;5086939;28;20122;-16
2023/07/03 07:44:52;;;;;;;21.35;17.08;;;;;;;26.30;81.31;99708.34;5086871;28;20031;-16
2023/07/03 07:47:22;;;;;;;22.23;17.10;;;;;;;26.68;77.59;99712.09;5087535;28;20039;-18
2023/07/03 07:49:55;;;;;;;25.90;15.30;;;;;;;26.73;76.71;99706.44;5066958;28;20032;-16
2023/07/03 07:52:27;;;;;;;19.02;15.07;;;;;;;26.57;74.05;99709.78;5066706;28;20086;-16
2023/07/03 07:55:05;;;;;;;19.45;15.55;;;;;;;26.76;74.23;99705.75;5067218;28;20021;-16
2023/07/03 07:57:31;;;;;;;20.58;15.63;;;;;;;26.69;74.87;99716.44;5077890;28;20263;-16
2023/07/03 07:59:56;;;;;;;18.45;14.98;;;;;;;26.83;71.92;99720.50;5086542;28;21168;-16
2023/07/03 08:02:22;;;;;;;20.15;14.55;;;;;;;26.90;71.51;99724.63;5086776;28;20039;-16
2023/07/03 08:04:47;;;;;;;18.13;14.20;;;;;;;27.02;67.36;99730.13;5086382;28;20028;-17
2023/07/03 08:07:13;;;;;;;18.08;15.27;;;;;;;27.14;68.30;99727.41;5086902;28;20024;-22
2023/07/03 08:09:41;;;;;;;21.25;14.88;;;;;;;27.20;69.28;99706.91;5086345;28;20032;-16
2023/07/03 08:12:07;;;;;;;21.35;17.35;;;;;;;27.55;72.60;99728.44;5086333;28;20051;-21
2023/07/03 08:14:32;;;;;;;19.02;15.85;;;;;;;27.80;72.45;99720.22;5086430;28;20027;-19
2023/07/03 08:16:58;;;;;;;18.70;14.55;;;;;;;27.78;69.15;99730.72;5085959;28;20020;-16
2023/07/03 08:19:23;;;;;;;20.85;14.68;;;;;;;27.72;69.20;99734.81;5086823;28;20040;-20
2023/07/03 08:21:49;;;;;;;18.73;15.85;;;;;;;27.61;68.85;99720.78;5085974;28;20043;-18
2023/07/03 08:24:14;;;;;;;17.85;14.32;;;;;;;27.81;66.88;99732.78;5086043;28;20419;-17
2023/07/03 08:26:41;;;;;;;20.70;15.90;;;;;;;27.83;67.43;99725.03;5086262;28;20531;-17
2023/07/03 08:29:07;;;;;;;17.85;14.18;;;;;;;27.95;64.27;99711.34;5085834;28;20032;-16
2023/07/03 08:31:35;;;;;;;18.85;14.05;;;;;;;28.28;64.55;99729.56;5086034;28;20032;-16
2023/07/03 08:34:00;;;;;;;18.67;14.88;;;;;;;28.40;63.97;99736.94;5085662;28;20027;-16
2023/07/03 08:36:26;;;;;;;17.90;15.15;;;;;;;28.62;61.02;99727.41;5086094;28;20127;-17
2023/07/03 08:38:51;;;;;;;16.98;13.77;;;;;;;28.74;62.50;99727.38;5085698;28;20062;-17
2023/07/03 08:41:18;;;;;;;16.83;14.00;;;;;;;28.77;59.97;99723.13;5085889;28;20449;-16
2023/07/03 08:43:47;;;;;;;16.25;14.23;;;;;;;28.73;64.23;99722.22;5086276;28;20055;-19
2023/07/03 08:46:21;;;;;;;17.20;13.57;;;;;;;28.78;63.27;99722.78;5066521;28;20172;-20
2023/07/03 08:48:49;;;;;;;16.10;14.27;;;;;;;29.15;61.24;99719.88;5085432;28;20066;-17
2023/07/03 08:51:20;;;;;;;15.90;12.30;;;;;;;29.17;57.42;99709.31;5086107;28;20032;-17
2023/07/03 08:53:55;;;;;;;15.60;13.18;;;;;;;29.38;57.52;99730.25;5086122;28;20031;-16
2023/07/03 08:56:26;;;;;;;14.43;12.18;;;;;;;29.09;56.59;99717.72;5086099;28;20031;-17
2023/07/03 08:58:54;;;;;;;17.30;14.35;;;;;;;28.98;58.29;99729.19;5086259;28;20016;-16
2023/07/03 09:01:41;;;;;;;17.75;14.25;;;;;;;29.12;63.15;99722.53;5086017;28;20126;-16
2023/07/03 09:04:15;;;;;;;15.60;12.05;;;;;;;29.17;57.00;99730.50;5086109;28;20043;-17
2023/07/03 09:07:05;;;;;;;15.02;10.90;;;;;;;29.25;54.71;99735.81;5086016;28;20032;-16
2023/07/03 09:09:51;;;;;;;13.45;10.90;;;;;;;29.43;52.15;99732.75;5086006;28;20032;-16
2023/07/03 09:12:25;;;;;;;13.43;10.30;;;;;;;29.44;52.82;99734.31;5085789;28;20032;-16
2023/07/03 09:15:37;;;;;;;12.65;10.32;;;;;;;29.85;51.35;99732.19;5085780;28;20128;-16
2023/07/03 09:18:13;;;;;;;17.15;10.70;;;;;;;30.00;52.65;99723.13;5077702;28;20032;-16
2023/07/03 09:20:44;;;;;;;14.55;10.32;;;;;;;30.08;51.08;99728.78;5086365;28;20039;-16
2023/07/03 09:23:32;;;;;;;12.80;10.60;;;;;;;29.97;52.32;99723.84;5085688;28;20027;-17
2023/07/03 09:26:14;;;;;;;;;;;;;;;;;;;;;
2023/07/03 09:28:43;;;;;;;12.40;10.40;;;;;;;30.58;49.60;99724.38;5081823;28;20032;-16
2023/07/03 09:31:12;;;;;;;15.25;9.95;;;;;;;30.48;46.73;99731.25;5085719;28;20089;-15
2023/07/03 09:33:49;;;;;;;15.20;10.43;;;;;;;30.52;49.26;99723.88;5085672;28;20080;-16
2023/07/03 09:36:41;;;;;;;12.05;9.70;;;;;;;30.80;48.71;99720.09;5085381;28;20031;-19
2023/07/03 09:39:24;;;;;;;12.68;10.73;;;;;;;30.63;47.32;99722.16;5085710;28;20066;-16
2023/07/03 09:41:50;;;;;;;13.10;10.18;;;;;;;30.52;49.75;99721.13;5085371;28;20074;-17
2023/07/03 09:44:24;;;;;;;13.23;9.80;;;;;;;30.62;49.79;99715.03;5085852;28;20043;-18
2023/07/03 09:47:02;;;;;;;11.80;9.65;;;;;;;31.10;46.84;99716.75;5085891;28;20080;-16
2023/07/03 09:49:32;;;;;;;11.77;8.80;;;;;;;31.24;43.12;99723.31;5085543;28;20159;-16
2023/07/03 09:52:00;;;;;;;11.43;8.35;;;;;;;31.46;41.58;99729.22;5085237;28;20024;-16
2023/07/03 09:54:31;;;;;;;10.90;8.10;;;;;;;31.25;44.10;99713.09;5085353;28;20027;-16
2023/07/03 09:57:02;;;;;;;12.38;9.45;;;;;;;31.23;47.56;99709.91;5073643;28;20079;-16
2023/07/03 09:59:32;;;;;;;12.30;9.52;;;;;;;31.27;44.00;99704.47;5065105;28;20026;-16
2023/07/03 10:02:06;;;;;;;11.50;8.35;;;;;;;31.14;43.06;99712.91;5064721;28;20803;-17
2023/07/03 10:04:34;;;;;;;11.18;8.23;;;;;;;31.24;42.44;99704.03;5070610;28;20137;-16
2023/07/03 10:07:05;;;;;;;10.80;8.52;;;;;;;31.49;46.10;99706.44;5084463;28;20024;-18
2023/07/03 10:09:35;;;;;;;9.98;6.40;;;;;;;31.48;39.11;99704.03;5082930;28;20036;-16
2023/07/03 10:12:23;;;;;;;10.75;7.45;;;;;;;31.31;39.50;99711.63;5085005;28;20107;-16
2023/07/03 10:14:48;;;;;;;9.80;6.57;;;;;;;31.73;39.73;99709.94;5084754;28;20051;-18
2023/07/03 10:17:15;;;;;;;9.68;6.25;;;;;;;31.83;39.45;99714.81;5084940;28;20072;-17
2023/07/03 10:19:51;;;;;;;11.80;7.90;;;;;;;31.77;38.62;99694.25;5084791;28;20047;-16
2023/07/03 10:22:18;;;;;;;10.23;7.63;;;;;;;31.49;39.20;99689.09;5084303;28;20051;-17
2023/07/03 10:24:47;;;;;;;10.13;7.50;;;;;;;31.59;38.17;99711.31;5085188;28;20224;-17
2023/07/03 10:27:19;;;;;;;8.15;5.13;;;;;;;31.60;34.68;99706.59;5085172;28;20119;-17
2023/07/03 10:29:52;;;;;;;9.43;6.05;;;;;;;31.80;37.04;99701.78;5085091;28;20696;-22
2023/07/03 10:32:23;;;;;;;9.63;6.93;;;;;;;32.12;39.68;99709.72;5084857;28;20024;-18
2023/07/03 10:34:57;;;;;;;9.25;7.22;;;;;;;32.23;37.66;99705.97;5085105;28;20035;-16
2023/07/03 10:37:31;;;;;;;10.70;6.90;;;;;;;32.55;39.62;99704.78;5084621;28;20020;-17
2023/07/03 10:40:04;;;;;;;10.00;7.22;;;;;;;32.89;38.75;99696.50;5084878;28;20020;-16
2023/07/03 10:42:38;;;;;;;9.40;7.15;;;;;;;32.67;35.26;99701.78;5084770;28;20223;-17
2023/07/03 10:45:09;;;;;;;10.18;6.30;;;;;;;32.94;38.44;99704.44;5084729;28;20146;-16
2023/07/03 10:47:43;;;;;;;9.70;7.57;;;;;;;32.79;36.27;99701.50;5084975;28;20626;-18
2023/07/03 10:50:08;;;;;;;9.63;7.20;;;;;;;33.06;34.50;99701.41;5084819;28;20486;-16
2023/07/03 10:52:43;;;;;;;9.13;7.53;;;;;;;33.02;35.02;99701.38;5084765;28;20555;-17
2023/07/03 10:55:42;;;;;;;9.60;6.75;;;;;;;33.35;34.25;99698.94;5085002;28;20398;-16
2023/07/03 10:58:42;;;;;;;10.82;6.82;;;;;;;33.40;34.07;99695.78;5084509;28;20119;-16
2023/07/03 11:01:26;;;;;;;10.13;7.20;;;;;;;33.03;34.18;99691.09;5082819;28;20046;-17
2023/07/03 11:03:54;;;;;;;8.80;6.65;;;;;;;32.98;34.68;99683.19;5087132;28;20026;-17
2023/07/03 11:06:32;;;;;;;10.10;7.70;;;;;;;33.01;35.94;99672.13;5070060;28;20427;-16
2023/07/03 11:09:08;;;;;;;9.65;6.85;;;;;;;33.14;34.86;99686.53;5088261;28;20111;-17
2023/07/03 11:11:58;;;;;;;10.20;7.38;;;;;;;33.10;37.92;99684.88;5088402;28;20054;-18
2023/07/03 11:14:36;;;;;;;10.10;6.68;;;;;;;33.13;34.54;99681.38;5088587;28;20055;-16
2023/07/03 11:17:04;;;;;;;9.82;6.68;;;;;;;33.37;37.01;99671.69;5088369;28;20403;-16
2023/07/03 11:20:09;;;;;;;9.25;6.72;;;;;;;33.08;37.20;99667.84;5088158;28;20508;-21
2023/07/03 11:22:47;;;;;;;10.65;6.45;;;;;;;33.16;33.28;99678.63;5087993;28;20051;-17
2023/07/03 11:25:39;;;;;;;8.02;6.35;;;;;;;33.50;35.99;99661.91;5088408;28;20016;-16
2023/07/03 11:28:35;;;;;;;11.10;6.57;;;;;;;33.51;35.47;99671.81;5087937;28;20105;-18
2023/07/03 11:31:04;;;;;;;10.80;7.07;;;;;;;33.71;35.77;99652.19;5088090;28;20534;-16
2023/07/03 11:33:33;;;;;;;11.10;7.40;;;;;;;33.67;34.48;99648.63;5088041;28;20518;-16
2023/07/03 11:36:07;;;;;;;9.27;6.47;;;;;;;33.86;35.84;99662.19;5087841;28;20028;-16
2023/07/03 11:38:35;;;;;;;9.32;7.40;;;;;;;33.55;34.87;99657.97;5087637;28;20069;-17
2023/07/03 11:41:18;;;;;;;12.20;7.07;;;;;;;33.54;34.25;99648.13;5087761;28;20118;-17
2023/07/03 11:44:04;;;;;;;9.30;6.70;;;;;;;33.77;36.53;99651.44;5087645;28;20027;-16
2023/07/03 11:46:31;;;;;;;9.80;7.53;;;;;;;34.05;33.34;99652.00;5088171;28;20454;-16